Time,TemperatureF,DewpointF,PressureIn,WindDirection,WindDirectionDegrees,WindSpeedMPH,WindSpeedGustMPH,Humidity,HourlyPrecipIn,Conditions,Clouds,dailyrainin,SoftwareType,DateUTC
2013-01-24 00:00:00,29.0,-24.0,-100.00,SW,225,16.0,38.0,8,-99.99,,,-99.99,,2013-01-24 07:00:00,
2013-01-24 00:43:00,29.0,-24.0,-100.00,SW,225,16.0,38.0,8,-99.99,,,-99.99,,2013-01-24 07:43:00,
2013-01-24 00:53:00,29.0,-24.0,-100.00,SW,225,16.0,38.0,8,-99.99,,,-99.99,,2013-01-24 07:53:00,
2013-01-24 01:00:00,29.0,-26.0,-100.00,WSW,240,18.0,38.0,7,-99.99,,,-99.99,,2013-01-24 08:00:00,
2013-01-24 01:43:00,29.0,-26.0,-100.00,WSW,240,18.0,38.0,7,-99.99,,,-99.99,,2013-01-24 08:43:00,
2013-01-24 01:53:00,29.0,-26.0,-100.00,WSW,240,18.0,38.0,7,-99.99,,,-99.99,,2013-01-24 08:53:00,
2013-01-24 02:00:00,29.0,-25.0,-100.00,WSW,239,20.0,38.0,8,-99.99,,,-99.99,,2013-01-24 09:00:00,
2013-01-24 02:43:00,29.0,-25.0,-100.00,WSW,239,20.0,38.0,8,-99.99,,,-99.99,,2013-01-24 09:43:00,
2013-01-24 02:53:00,29.0,-25.0,-100.00,WSW,239,20.0,38.0,8,-99.99,,,-99.99,,2013-01-24 09:53:00,
2013-01-24 03:00:00,28.0,-24.0,-100.00,SW,236,26.0,48.0,8,-99.99,,,-99.99,,2013-01-24 10:00:00,
2013-01-24 03:43:00,28.0,-24.0,-100.00,SW,236,26.0,48.0,8,-99.99,,,-99.99,,2013-01-24 10:43:00,
2013-01-24 03:53:00,28.0,-24.0,-100.00,SW,236,26.0,48.0,8,-99.99,,,-99.99,,2013-01-24 10:53:00,
2013-01-24 04:00:00,28.0,-26.0,-100.00,SW,230,25.0,46.0,7,-99.99,,,-99.99,,2013-01-24 11:00:00,
2013-01-24 04:43:00,28.0,-26.0,-100.00,SW,230,25.0,46.0,7,-99.99,,,-99.99,,2013-01-24 11:43:00,
2013-01-24 04:53:00,28.0,-26.0,-100.00,SW,230,25.0,46.0,7,-99.99,,,-99.99,,2013-01-24 11:53:00,
2013-01-24 05:00:00,27.0,-21.0,-100.00,West,264,17.0,38.0,11,-99.99,,,-99.99,,2013-01-24 12:00:00,
2013-01-24 05:43:00,27.0,-21.0,-100.00,West,264,17.0,38.0,11,-99.99,,,-99.99,,2013-01-24 12:43:00,
2013-01-24 05:53:00,27.0,-21.0,-100.00,West,264,17.0,38.0,11,-99.99,,,-99.99,,2013-01-24 12:53:00,
2013-01-24 06:00:00,24.0,-13.0,-100.00,WNW,285,8.0,25.0,17,-99.99,,,-99.99,,2013-01-24 13:00:00,
2013-01-24 06:43:00,24.0,-13.0,-100.00,WNW,285,8.0,25.0,17,-99.99,,,-99.99,,2013-01-24 13:43:00,
2013-01-24 06:53:00,24.0,-13.0,-100.00,WNW,285,8.0,25.0,17,-99.99,,,-99.99,,2013-01-24 13:53:00,
2013-01-24 07:00:00,24.0,-8.0,-100.00,WSW,252,8.0,28.0,23,-99.99,,,-99.99,,2013-01-24 14:00:00,
2013-01-24 07:43:00,24.0,-8.0,-100.00,WSW,252,8.0,28.0,23,-99.99,,,-99.99,,2013-01-24 14:43:00,
2013-01-24 07:54:00,24.0,-8.0,-100.00,WSW,252,8.0,28.0,23,-99.99,,,-99.99,,2013-01-24 14:54:00,
2013-01-24 08:00:00,21.0,8.0,-100.00,West,281,12.0,29.0,58,-99.99,,,-99.99,,2013-01-24 15:00:00,
2013-01-24 08:43:00,21.0,8.0,-100.00,West,281,12.0,29.0,58,-99.99,,,-99.99,,2013-01-24 15:43:00,
2013-01-24 08:53:00,21.0,8.0,-100.00,West,281,12.0,29.0,58,-99.99,,,-99.99,,2013-01-24 15:53:00,
2013-01-24 10:00:00,21.0,15.0,-100.00,WNW,286,12.0,31.0,76,-99.99,,,-99.99,,2013-01-24 17:00:00,
2013-01-24 10:42:00,21.0,15.0,-100.00,WNW,286,12.0,31.0,76,-99.99,,,-99.99,,2013-01-24 17:42:00,
2013-01-24 10:52:00,21.0,15.0,-100.00,WNW,286,12.0,31.0,76,-99.99,,,-99.99,,2013-01-24 17:52:00,
2013-01-24 11:00:00,24.0,15.0,-100.00,SW,228,6.0,26.0,69,-99.99,,,-99.99,,2013-01-24 18:00:00,
2013-01-24 11:43:00,24.0,15.0,-100.00,SW,228,6.0,26.0,69,-99.99,,,-99.99,,2013-01-24 18:43:00,
2013-01-24 11:53:00,24.0,15.0,-100.00,SW,228,6.0,26.0,69,-99.99,,,-99.99,,2013-01-24 18:53:00,
2013-01-24 12:00:00,24.0,16.0,-100.00,WNW,298,9.0,30.0,70,-99.99,,,-99.99,,2013-01-24 19:00:00,
2013-01-24 12:42:00,24.0,16.0,-100.00,WNW,298,9.0,30.0,70,-99.99,,,-99.99,,2013-01-24 19:42:00,
2013-01-24 12:52:00,24.0,16.0,-100.00,WNW,298,9.0,30.0,70,-99.99,,,-99.99,,2013-01-24 19:52:00,
2013-01-24 13:00:00,25.0,17.0,-100.00,West,280,8.0,26.0,71,-99.99,,,-99.99,,2013-01-24 20:00:00,
2013-01-24 13:42:00,25.0,17.0,-100.00,West,280,8.0,26.0,71,-99.99,,,-99.99,,2013-01-24 20:42:00,
2013-01-24 13:52:00,25.0,17.0,-100.00,West,280,8.0,26.0,71,-99.99,,,-99.99,,2013-01-24 20:52:00,
2013-01-24 14:00:00,23.0,17.0,-100.00,WNW,284,10.0,24.0,78,-99.99,,,-99.99,,2013-01-24 21:00:00,
2013-01-24 14:43:00,23.0,17.0,-100.00,WNW,284,10.0,24.0,78,-99.99,,,-99.99,,2013-01-24 21:43:00,
2013-01-24 14:53:00,23.0,17.0,-100.00,WNW,284,10.0,24.0,78,-99.99,,,-99.99,,2013-01-24 21:53:00,
2013-01-24 15:00:00,22.0,17.0,-100.00,WNW,287,7.0,18.0,83,-99.99,,,-99.99,,2013-01-24 22:00:00,
2013-01-24 15:42:00,22.0,17.0,-100.00,WNW,287,7.0,18.0,83,-99.99,,,-99.99,,2013-01-24 22:42:00,
2013-01-24 15:53:00,22.0,17.0,-100.00,WNW,287,7.0,18.0,83,-99.99,,,-99.99,,2013-01-24 22:53:00,
2013-01-24 16:00:00,20.0,19.0,-100.00,WNW,297,5.0,12.0,94,-99.99,,,-99.99,,2013-01-24 23:00:00,
2013-01-24 16:42:00,20.0,19.0,-100.00,WNW,297,5.0,12.0,94,-99.99,,,-99.99,,2013-01-24 23:42:00,
2013-01-24 16:52:00,20.0,19.0,-100.00,WNW,297,5.0,12.0,94,-99.99,,,-99.99,,2013-01-24 23:52:00,
2013-01-24 17:00:00,21.0,20.0,-100.00,West,280,3.0,11.0,95,-99.99,,,-99.99,,2013-01-25 00:00:00,
2013-01-24 17:42:00,21.0,20.0,-100.00,West,280,3.0,11.0,95,-99.99,,,-99.99,,2013-01-25 00:42:00,
2013-01-24 17:52:00,21.0,20.0,-100.00,West,280,3.0,11.0,95,-99.99,,,-99.99,,2013-01-25 00:52:00,
2013-01-24 18:00:00,22.0,20.0,-100.00,NW,305,13.0,23.0,93,-99.99,,,-99.99,,2013-01-25 01:00:00,
2013-01-24 18:42:00,22.0,20.0,-100.00,NW,305,13.0,23.0,93,-99.99,,,-99.99,,2013-01-25 01:42:00,
2013-01-24 18:52:00,22.0,20.0,-100.00,NW,305,13.0,23.0,93,-99.99,,,-99.99,,2013-01-25 01:52:00,
2013-01-24 19:00:00,21.0,20.0,-100.00,NW,306,15.0,31.0,96,-99.99,,,-99.99,,2013-01-25 02:00:00,
2013-01-24 19:43:00,21.0,20.0,-100.00,NW,306,15.0,31.0,96,-99.99,,,-99.99,,2013-01-25 02:43:00,
2013-01-24 19:52:00,21.0,20.0,-100.00,NW,306,15.0,31.0,96,-99.99,,,-99.99,,2013-01-25 02:52:00,
2013-01-24 20:00:00,21.0,20.0,-100.00,NW,310,15.0,26.0,96,-99.99,,,-99.99,,2013-01-25 03:00:00,
2013-01-24 20:42:00,21.0,20.0,-100.00,NW,310,15.0,26.0,96,-99.99,,,-99.99,,2013-01-25 03:42:00,
2013-01-24 20:52:00,21.0,20.0,-100.00,NW,310,15.0,26.0,96,-99.99,,,-99.99,,2013-01-25 03:52:00,
2013-01-24 21:00:00,21.0,20.0,-100.00,NW,307,9.0,19.0,96,-99.99,,,-99.99,,2013-01-25 04:00:00,
2013-01-24 21:42:00,21.0,20.0,-100.00,NW,307,9.0,19.0,96,-99.99,,,-99.99,,2013-01-25 04:42:00,
2013-01-24 21:51:00,21.0,20.0,-100.00,NW,307,9.0,19.0,96,-99.99,,,-99.99,,2013-01-25 04:51:00,
2013-01-24 22:00:00,21.0,21.0,-100.00,West,274,7.0,18.0,96,-99.99,,,-99.99,,2013-01-25 05:00:00,
2013-01-24 22:43:00,21.0,21.0,-100.00,West,274,7.0,18.0,96,-99.99,,,-99.99,,2013-01-25 05:43:00,
2013-01-24 22:52:00,21.0,21.0,-100.00,West,274,7.0,18.0,96,-99.99,,,-99.99,,2013-01-25 05:52:00,
2013-01-24 23:00:00,21.0,21.0,-100.00,SW,223,4.0,17.0,96,-99.99,,,-99.99,,2013-01-25 06:00:00,
2013-01-24 23:42:00,21.0,21.0,-100.00,SW,223,4.0,17.0,96,-99.99,,,-99.99,,2013-01-25 06:42:00,
2013-01-24 23:52:00,21.0,21.0,-100.00,SW,223,4.0,17.0,96,-99.99,,,-99.99,,2013-01-25 06:52:00,